Time;durP1;ratioP1;P1;durP2;ratioP2;P2;SDS_P1;SDS_P2;PMS_P1;PMS_P2;Temp;Humidity;BMP_temperature;BMP_pressure;BME280_temperature;BME280_humidity;BME280_pressure;Samples;Min_cycle;Max_cycle;Signal;HPM_P1;HPM_P2
2023/08/31 00:00:45;;;;;;;3.22;1.08;;;;;;;;;;5042809;28;20502;-83
2023/08/31 00:03:12;;;;;;;1.92;1.05;;;;;;;;;;5042872;28;20025;-82
2023/08/31 00:05:41;;;;;;;2.20;1.00;;;;;;;;;;5055595;28;20020;-83
2023/08/31 00:08:07;;;;;;;2.45;1.00;;;;;;;;;;5052314;28;20024;-83
2023/08/31 00:10:33;;;;;;;1.65;1.00;;;;;;;;;;5039183;28;20088;-82
2023/08/31 00:12:58;;;;;;;2.63;1.63;;;;;;;;;;5037889;28;20028;-83
2023/08/31 00:15:24;;;;;;;2.20;1.10;;;;;;;;;;5043749;28;20024;-83
2023/08/31 00:17:50;;;;;;;4.72;1.20;;;;;;;;;;5035695;28;20021;-83
2023/08/31 00:20:15;;;;;;;1.70;1.00;;;;;;;;;;5040080;28;20433;-82
2023/08/31 00:22:41;;;;;;;2.42;1.02;;;;;;;;;;5045194;28;20111;-83
2023/08/31 00:25:08;;;;;;;1.75;1.10;;;;;;;;;;5039744;28;20039;-83
2023/08/31 00:27:37;;;;;;;1.70;1.08;;;;;;;;;;5035848;28;20353;-83
2023/08/31 00:30:07;;;;;;;1.15;0.90;;;;;;;;;;5035600;28;20021;-82
2023/08/31 00:32:34;;;;;;;1.83;1.02;;;;;;;;;;5060245;28;20055;-83
2023/08/31 00:34:59;;;;;;;1.90;0.80;;;;;;;;;;5036599;28;20513;-83
2023/08/31 00:37:24;;;;;;;2.67;0.90;;;;;;;;;;5035264;28;20017;-83
2023/08/31 00:39:52;;;;;;;2.42;0.90;;;;;;;;;;5048983;28;20031;-83
2023/08/31 00:42:18;;;;;;;1.48;0.80;;;;;;;;;;5035359;28;20020;-83
2023/08/31 00:44:43;;;;;;;2.67;1.02;;;;;;;;;;5034521;28;20116;-83
2023/08/31 00:47:09;;;;;;;1.65;0.60;;;;;;;;;;5049215;28;20021;-83
2023/08/31 00:49:35;;;;;;;2.72;0.70;;;;;;;;;;5053400;28;20120;-82
2023/08/31 00:52:00;;;;;;;0.95;0.70;;;;;;;;;;5035080;28;20144;-83
2023/08/31 00:54:26;;;;;;;2.60;1.00;;;;;;;;;;5036987;28;20089;-83
2023/08/31 00:56:57;;;;;;;2.08;0.90;;;;;;;;;;5038475;28;20400;-83
2023/08/31 00:59:24;;;;;;;1.48;0.93;;;;;;;;;;5035306;28;20384;-83
2023/08/31 01:01:55;;;;;;;2.13;0.98;;;;;;;;;;5031951;28;20024;-83
2023/08/31 01:04:23;;;;;;;3.25;1.00;;;;;;;;;;5030447;28;20022;-82
2023/08/31 01:06:52;;;;;;;2.10;0.93;;;;;;;;;;5061971;28;20135;-83
2023/08/31 01:09:25;;;;;;;2.03;0.93;;;;;;;;;;5046269;28;20092;-82
2023/08/31 01:11:56;;;;;;;1.95;1.10;;;;;;;;;;5036784;28;20025;-83
2023/08/31 01:14:24;;;;;;;2.08;1.20;;;;;;;;;;5044970;28;20435;-83
2023/08/31 01:16:51;;;;;;;1.85;1.00;;;;;;;;;;5072351;28;20028;-83
2023/08/31 01:19:26;;;;;;;2.38;1.20;;;;;;;;;;5057815;28;20020;-83
2023/08/31 01:21:53;;;;;;;2.92;1.10;;;;;;;;;;5040166;28;20039;-82
2023/08/31 01:24:19;;;;;;;2.38;1.20;;;;;;;;;;5037114;28;20031;-83
2023/08/31 01:26:48;;;;;;;3.88;1.20;;;;;;;;;;5073939;28;20016;-83
2023/08/31 01:29:16;;;;;;;9.07;1.27;;;;;;;;;;5044040;28;20108;-83
2023/08/31 01:31:43;;;;;;;2.22;1.40;;;;;;;;;;5052356;28;20040;-83
2023/08/31 01:34:14;;;;;;;3.28;1.38;;;;;;;;;;5045032;28;20388;-82
2023/08/31 01:36:42;;;;;;;1.80;1.17;;;;;;;;;;5051174;28;20028;-83
2023/08/31 01:39:14;;;;;;;6.28;1.20;;;;;;;;;;5042891;28;20403;-83
2023/08/31 01:41:43;;;;;;;4.95;1.45;;;;;;;;;;5040389;28;20021;-83
2023/08/31 01:44:12;;;;;;;2.47;1.15;;;;;;;;;;5034069;28;20029;-83
2023/08/31 01:46:37;;;;;;;2.85;1.30;;;;;;;;;;5035335;28;20393;-83
2023/08/31 01:49:05;;;;;;;3.08;1.30;;;;;;;;;;5034430;28;20025;-82
2023/08/31 01:51:30;;;;;;;4.55;1.80;;;;;;;;;;5037150;28;20052;-83
2023/08/31 01:53:56;;;;;;;4.63;1.67;;;;;;;;;;5038776;28;20068;-83
2023/08/31 01:56:21;;;;;;;3.88;1.60;;;;;;;;;;5038561;28;20028;-83
2023/08/31 01:58:46;;;;;;;7.55;1.90;;;;;;;;;;5039593;28;20025;-83
2023/08/31 02:01:12;;;;;;;4.78;2.15;;;;;;;;;;5050763;28;20017;-83
2023/08/31 02:03:37;;;;;;;3.55;1.65;;;;;;;;;;5051416;28;20093;-83
2023/08/31 02:06:03;;;;;;;4.25;1.95;;;;;;;;;;5058474;28;20107;-82
2023/08/31 02:08:29;;;;;;;6.13;2.00;;;;;;;;;;5061069;28;20111;-83
2023/08/31 02:10:55;;;;;;;3.83;1.85;;;;;;;;;;5036022;28;20166;-83
2023/08/31 02:13:20;;;;;;;4.82;1.73;;;;;;;;;;5047320;28;20476;-83
2023/08/31 02:15:46;;;;;;;3.22;1.95;;;;;;;;;;5058265;28;20120;-83
2023/08/31 02:18:17;;;;;;;2.55;1.75;;;;;;;;;;5082090;28;20013;-83
2023/08/31 02:20:42;;;;;;;8.87;2.03;;;;;;;;;;5069380;28;20012;-82
2023/08/31 02:23:09;;;;;;;3.88;1.77;;;;;;;;;;5060665;28;20027;-83
2023/08/31 02:25:35;;;;;;;4.30;2.10;;;;;;;;;;5040745;28;20104;-83
2023/08/31 02:28:00;;;;;;;3.83;1.92;;;;;;;;;;5043304;28;20041;-83
2023/08/31 02:30:26;;;;;;;3.63;1.85;;;;;;;;;;5046197;28;20029;-82
2023/08/31 02:32:52;;;;;;;5.47;2.15;;;;;;;;;;5042528;28;20025;-83
2023/08/31 02:35:17;;;;;;;3.40;1.63;;;;;;;;;;5039775;28;20017;-83
2023/08/31 02:37:43;;;;;;;6.03;2.25;;;;;;;;;;5052426;28;20499;-82
2023/08/31 02:40:09;;;;;;;5.15;2.10;;;;;;;;;;5040170;28;20029;-82
2023/08/31 02:42:34;;;;;;;5.65;2.17;;;;;;;;;;5038192;28;20028;-83
2023/08/31 02:44:59;;;;;;;6.90;2.08;;;;;;;;;;5038353;28;20472;-83
2023/08/31 02:47:25;;;;;;;4.43;1.80;;;;;;;;;;5043873;28;20360;-83
2023/08/31 02:49:50;;;;;;;4.45;2.20;;;;;;;;;;5056559;28;20024;-83
2023/08/31 02:52:15;;;;;;;5.05;2.20;;;;;;;;;;5051725;28;20019;-82
2023/08/31 02:54:43;;;;;;;3.35;1.75;;;;;;;;;;5047447;28;20471;-83
2023/08/31 02:57:11;;;;;;;8.50;2.20;;;;;;;;;;5043690;28;20380;-83
2023/08/31 02:59:36;;;;;;;5.55;2.17;;;;;;;;;;5049840;28;20384;-83
2023/08/31 03:02:02;;;;;;;4.03;2.20;;;;;;;;;;5036284;28;20499;-83
2023/08/31 03:04:28;;;;;;;7.15;2.25;;;;;;;;;;5037086;28;20445;-83
2023/08/31 03:06:53;;;;;;;5.00;2.25;;;;;;;;;;5037109;28;20024;-83
2023/08/31 03:09:20;;;;;;;5.70;2.28;;;;;;;;;;5036983;28;20013;-83
2023/08/31 03:11:45;;;;;;;5.85;2.33;;;;;;;;;;5036654;28;20020;-83
2023/08/31 03:14:10;;;;;;;3.67;2.10;;;;;;;;;;5036924;28;20025;-83
2023/08/31 03:16:38;;;;;;;3.67;2.15;;;;;;;;;;5045105;28;20020;-83
2023/08/31 03:19:05;;;;;;;4.53;2.13;;;;;;;;;;5042655;28;20024;-82
2023/08/31 03:21:31;;;;;;;6.97;2.40;;;;;;;;;;5054935;28;20017;-83
2023/08/31 03:23:56;;;;;;;7.40;2.50;;;;;;;;;;5069060;28;20028;-83
2023/08/31 03:26:22;;;;;;;4.88;2.30;;;;;;;;;;5043021;28;20077;-83
2023/08/31 03:28:50;;;;;;;5.22;2.25;;;;;;;;;;5069117;28;20013;-83
2023/08/31 03:31:15;;;;;;;4.82;2.35;;;;;;;;;;5041422;28;20483;-82
2023/08/31 03:33:41;;;;;;;5.65;2.30;;;;;;;;;;5052094;28;20025;-83
2023/08/31 03:36:09;;;;;;;8.68;2.80;;;;;;;;;;5062407;28;20365;-83
2023/08/31 03:38:37;;;;;;;6.60;2.50;;;;;;;;;;5076999;28;20009;-84
2023/08/31 03:41:03;;;;;;;7.00;2.22;;;;;;;;;;5071282;28;20017;-84
2023/08/31 03:43:28;;;;;;;7.55;2.25;;;;;;;;;;5040854;28;20448;-84
2023/08/31 03:45:55;;;;;;;6.63;2.55;;;;;;;;;;5038840;28;20021;-84
2023/08/31 03:48:24;;;;;;;5.35;2.28;;;;;;;;;;5037344;28;20116;-83
2023/08/31 03:50:51;;;;;;;7.78;2.80;;;;;;;;;;5035418;28;20124;-85
2023/08/31 03:53:16;;;;;;;5.43;2.40;;;;;;;;;;5049472;28;20046;-84
2023/08/31 03:55:41;;;;;;;4.75;2.25;;;;;;;;;;5038159;28;20066;-83
2023/08/31 03:58:07;;;;;;;7.55;2.20;;;;;;;;;;5036390;28;20013;-83
2023/08/31 04:00:32;;;;;;;3.97;2.40;;;;;;;;;;5037082;28;20021;-84
2023/08/31 04:02:58;;;;;;;3.08;2.30;;;;;;;;;;5047645;28;20032;-84
2023/08/31 04:05:23;;;;;;;8.25;3.03;;;;;;;;;;5035857;28;20384;-84
2023/08/31 04:07:48;;;;;;;6.03;2.47;;;;;;;;;;5035275;28;20051;-84
2023/08/31 04:10:23;;;;;;;8.35;2.58;;;;;;;;;;5035296;28;20372;-84
2023/08/31 04:12:49;;;;;;;3.28;2.33;;;;;;;;;;5054631;28;20623;-83
2023/08/31 04:15:14;;;;;;;6.25;2.78;;;;;;;;;;5054940;28;20030;-84
2023/08/31 04:17:39;;;;;;;4.47;2.50;;;;;;;;;;5040761;28;20017;-84
2023/08/31 04:20:08;;;;;;;4.25;2.42;;;;;;;;;;5040949;28;20025;-84
2023/08/31 04:22:33;;;;;;;4.25;2.25;;;;;;;;;;5047897;28;20027;-84
2023/08/31 04:24:59;;;;;;;6.65;2.53;;;;;;;;;;5035131;28;20128;-84
2023/08/31 04:27:24;;;;;;;5.93;2.55;;;;;;;;;;5048152;28;20494;-84
2023/08/31 04:29:50;;;;;;;6.00;2.67;;;;;;;;;;5040791;28;20062;-83
2023/08/31 04:32:15;;;;;;;5.60;2.20;;;;;;;;;;5061947;28;20024;-84
2023/08/31 04:34:43;;;;;;;4.45;2.47;;;;;;;;;;5049868;28;20031;-85
2023/08/31 04:37:08;;;;;;;6.70;2.45;;;;;;;;;;5039450;28;20013;-83
2023/08/31 04:39:36;;;;;;;5.57;2.47;;;;;;;;;;5034998;28;20040;-83
2023/08/31 04:42:04;;;;;;;6.80;2.15;;;;;;;;;;5047446;28;20358;-82
2023/08/31 04:44:30;;;;;;;7.03;2.63;;;;;;;;;;5037934;28;20051;-83
2023/08/31 04:46:55;;;;;;;5.70;2.30;;;;;;;;;;5039157;28;20017;-83
2023/08/31 04:49:21;;;;;;;8.35;2.13;;;;;;;;;;5045903;28;20025;-82
2023/08/31 04:51:46;;;;;;;3.72;2.22;;;;;;;;;;5038149;28;20021;-82
2023/08/31 04:54:11;;;;;;;6.82;2.55;;;;;;;;;;5043457;28;20351;-82
2023/08/31 04:56:37;;;;;;;6.18;2.60;;;;;;;;;;5045389;28;20621;-83
2023/08/31 04:59:03;;;;;;;6.68;2.40;;;;;;;;;;5039429;28;20017;-82
2023/08/31 05:01:28;;;;;;;5.10;2.20;;;;;;;;;;5046056;28;20028;-82
2023/08/31 05:03:54;;;;;;;4.50;2.33;;;;;;;;;;5052868;28;20100;-82
2023/08/31 05:06:20;;;;;;;5.55;2.40;;;;;;;;;;5035457;28;20411;-82
2023/08/31 05:08:46;;;;;;;4.38;2.17;;;;;;;;;;5041286;28;20063;-82
2023/08/31 05:11:11;;;;;;;4.55;2.40;;;;;;;;;;5046814;28;20096;-83
2023/08/31 05:13:37;;;;;;;3.17;2.30;;;;;;;;;;5043187;28;20032;-82
2023/08/31 05:16:03;;;;;;;4.35;2.05;;;;;;;;;;5037916;28;20024;-82
2023/08/31 05:18:28;;;;;;;5.63;2.03;;;;;;;;;;5044316;28;20420;-82
2023/08/31 05:20:53;;;;;;;4.40;2.17;;;;;;;;;;5034881;28;20037;-82
2023/08/31 05:23:18;;;;;;;5.00;2.25;;;;;;;;;;5047209;28;20066;-81
2023/08/31 05:25:44;;;;;;;3.75;2.05;;;;;;;;;;5036583;28;20040;-83
2023/08/31 05:28:10;;;;;;;14.02;2.80;;;;;;;;;;5068736;28;20112;-82
2023/08/31 05:30:35;;;;;;;4.32;2.00;;;;;;;;;;5037877;28;20020;-83
2023/08/31 05:33:01;;;;;;;4.57;2.08;;;;;;;;;;5041060;28;20095;-82
2023/08/31 05:35:26;;;;;;;3.95;2.10;;;;;;;;;;5067156;28;20025;-83
2023/08/31 05:37:54;;;;;;;7.05;2.17;;;;;;;;;;5051566;28;20021;-82
2023/08/31 05:40:21;;;;;;;4.38;2.50;;;;;;;;;;5037877;28;20379;-82
2023/08/31 05:42:46;;;;;;;4.20;2.28;;;;;;;;;;5037938;28;20632;-82
2023/08/31 05:45:11;;;;;;;12.15;2.42;;;;;;;;;;5051862;28;20104;-82
2023/08/31 05:47:38;;;;;;;5.25;2.20;;;;;;;;;;5035286;28;20048;-82
2023/08/31 05:50:03;;;;;;;6.68;2.10;;;;;;;;;;5039579;28;20088;-82
2023/08/31 05:52:29;;;;;;;5.20;2.42;;;;;;;;;;5035802;28;20112;-82
2023/08/31 05:54:54;;;;;;;4.75;2.38;;;;;;;;;;5035794;28;20026;-82
2023/08/31 05:57:20;;;;;;;4.22;2.38;;;;;;;;;;5040324;28;20024;-82
2023/08/31 05:59:46;;;;;;;4.72;2.38;;;;;;;;;;5052064;28;20021;-82
2023/08/31 06:02:12;;;;;;;4.90;2.53;;;;;;;;;;5063200;28;20040;-81
2023/08/31 06:04:47;;;;;;;10.73;2.60;;;;;;;;;;5054306;28;20032;-82
2023/08/31 06:07:12;;;;;;;7.95;2.95;;;;;;;;;;5060288;28;20155;-83
2023/08/31 06:09:38;;;;;;;4.90;2.40;;;;;;;;;;5074022;28;20013;-83
2023/08/31 06:12:04;;;;;;;4.57;2.30;;;;;;;;;;5054303;28;20021;-82
2023/08/31 06:14:32;;;;;;;5.95;2.25;;;;;;;;;;5037236;28;20025;-82
2023/08/31 06:16:58;;;;;;;6.28;2.40;;;;;;;;;;5039641;28;20284;-82
2023/08/31 06:19:24;;;;;;;5.00;2.42;;;;;;;;;;5037109;28;20029;-82
2023/08/31 06:21:49;;;;;;;4.95;2.42;;;;;;;;;;5035995;28;20116;-82
2023/08/31 06:24:14;;;;;;;9.23;2.53;;;;;;;;;;5054056;28;20027;-83
2023/08/31 06:26:40;;;;;;;5.47;2.63;;;;;;;;;;5050450;28;20025;-82
2023/08/31 06:29:07;;;;;;;5.20;2.70;;;;;;;;;;5037036;28;20024;-82
2023/08/31 06:31:33;;;;;;;6.53;3.30;;;;;;;;;;5029251;28;20013;-82
2023/08/31 06:33:58;;;;;;;4.50;2.28;;;;;;;;;;5032324;28;20036;-82
2023/08/31 06:36:23;;;;;;;9.98;2.80;;;;;;;;;;5033245;28;20019;-82
2023/08/31 06:38:49;;;;;;;5.47;2.75;;;;;;;;;;5029094;28;20060;-82
2023/08/31 06:41:17;;;;;;;16.98;2.60;;;;;;;;;;5042811;28;20024;-82
2023/08/31 06:43:42;;;;;;;7.35;2.80;;;;;;;;;;5035542;28;20025;-82
2023/08/31 06:46:08;;;;;;;7.47;2.85;;;;;;;;;;5033934;28;20094;-81
2023/08/31 06:48:33;;;;;;;6.22;2.35;;;;;;;;;;5028218;28;20031;-82
2023/08/31 06:50:59;;;;;;;8.32;3.22;;;;;;;;;;5042332;28;20020;-82
2023/08/31 06:53:24;;;;;;;7.20;2.67;;;;;;;;;;5040026;28;20136;-82
2023/08/31 06:55:49;;;;;;;7.20;2.53;;;;;;;;;;5036222;28;20068;-82
2023/08/31 06:58:15;;;;;;;11.45;2.33;;;;;;;;;;5035554;28;20024;-82
2023/08/31 07:00:40;;;;;;;8.18;2.58;;;;;;;;;;5037884;28;20013;-82
2023/08/31 07:03:06;;;;;;;9.63;2.80;;;;;;;;;;5040128;28;20021;-82
2023/08/31 07:05:35;;;;;;;6.95;2.80;;;;;;;;;;5037246;28;20508;-82
2023/08/31 07:08:01;;;;;;;7.60;3.08;;;;;;;;;;5048377;28;20025;-82
2023/08/31 07:10:26;;;;;;;12.32;2.92;;;;;;;;;;5036084;28;20024;-82
2023/08/31 07:12:51;;;;;;;11.98;3.42;;;;;;;;;;5030043;28;20376;-82
2023/08/31 07:15:17;;;;;;;8.55;2.85;;;;;;;;;;5048082;28;20029;-82
2023/08/31 07:17:42;;;;;;;13.20;3.28;;;;;;;;;;5039494;28;20418;-82
2023/08/31 07:20:09;;;;;;;9.45;3.00;;;;;;;;;;5041590;28;20025;-82
2023/08/31 07:22:34;;;;;;;8.80;2.97;;;;;;;;;;5043084;28;20438;-82
2023/08/31 07:25:00;;;;;;;9.15;3.08;;;;;;;;;;5047982;28;20036;-82
2023/08/31 07:27:25;;;;;;;13.85;3.00;;;;;;;;;;5045241;28;20021;-82
2023/08/31 07:29:51;;;;;;;10.15;3.17;;;;;;;;;;5046223;28;20132;-82
2023/08/31 07:32:16;;;;;;;8.88;2.75;;;;;;;;;;5054557;28;20025;-82
2023/08/31 07:34:42;;;;;;;10.02;3.33;;;;;;;;;;5039322;28;20368;-82
2023/08/31 07:37:07;;;;;;;8.00;2.90;;;;;;;;;;5062847;28;20060;-82
2023/08/31 07:39:32;;;;;;;8.98;2.72;;;;;;;;;;5032100;28;20017;-83
2023/08/31 07:41:59;;;;;;;7.78;2.60;;;;;;;;;;5034011;28;20020;-82
2023/08/31 07:44:24;;;;;;;10.68;3.10;;;;;;;;;;5036076;28;20040;-82
2023/08/31 07:46:50;;;;;;;6.28;3.00;;;;;;;;;;5041373;28;20476;-83
2023/08/31 07:49:15;;;;;;;10.70;4.20;;;;;;;;;;5034291;28;20025;-82
2023/08/31 07:51:40;;;;;;;9.88;2.63;;;;;;;;;;5053661;28;20009;-83
2023/08/31 07:54:08;;;;;;;5.35;2.70;;;;;;;;;;5035793;28;20009;-82
2023/08/31 07:56:34;;;;;;;10.68;3.55;;;;;;;;;;5035201;28;20024;-83
2023/08/31 07:59:02;;;;;;;5.32;3.10;;;;;;;;;;5031925;28;20029;-82
2023/08/31 08:01:28;;;;;;;9.85;3.15;;;;;;;;;;5029665;28;20025;-82
2023/08/31 08:03:53;;;;;;;9.82;3.47;;;;;;;;;;5033707;28;20020;-83
2023/08/31 08:06:18;;;;;;;10.40;3.20;;;;;;;;;;5035094;28;20025;-82
2023/08/31 08:08:44;;;;;;;7.32;3.00;;;;;;;;;;5032503;28;20052;-83
2023/08/31 08:11:17;;;;;;;6.60;2.58;;;;;;;;;;5085216;27;20385;-86
2023/08/31 08:13:42;;;;;;;18.35;2.88;;;;;;;;;;5084449;28;20120;-86
2023/08/31 08:16:08;;;;;;;11.57;2.65;;;;;;;;;;5083586;28;20082;-85
2023/08/31 08:18:37;;;;;;;18.67;2.80;;;;;;;;;;5074011;28;20024;-85
2023/08/31 08:21:03;;;;;;;9.23;2.45;;;;;;;;;;5085758;28;20399;-85
2023/08/31 08:23:28;;;;;;;7.85;2.53;;;;;;;;;;5081121;28;20036;-85
2023/08/31 08:25:54;;;;;;;8.00;2.90;;;;;;;;;;5091278;28;20042;-85
2023/08/31 08:28:19;;;;;;;9.82;2.58;;;;;;;;;;5076860;28;20039;-85
2023/08/31 08:30:48;;;;;;;6.65;2.83;;;;;;;;;;5075636;28;20067;-85
2023/08/31 08:33:13;;;;;;;8.40;2.28;;;;;;;;;;5081739;28;20020;-85
2023/08/31 08:35:39;;;;;;;12.05;2.65;;;;;;;;;;5079428;28;20029;-85
2023/08/31 08:38:04;;;;;;;8.40;3.28;;;;;;;;;;5072885;28;20035;-86
2023/08/31 08:40:34;;;;;;;10.18;2.90;;;;;;;;;;5083713;28;20028;-85
2023/08/31 08:43:03;;;;;;;9.07;3.00;;;;;;;;;;5088851;28;20032;-85
2023/08/31 08:45:30;;;;;;;12.38;3.08;;;;;;;;;;5086745;28;20020;-85
2023/08/31 08:47:57;;;;;;;5.35;2.50;;;;;;;;;;5111383;27;20020;-85
2023/08/31 08:50:23;;;;;;;7.15;2.45;;;;;;;;;;5087662;28;20387;-85
2023/08/31 08:52:48;;;;;;;9.90;2.97;;;;;;;;;;5088073;28;20020;-85
2023/08/31 08:55:14;;;;;;;7.28;2.42;;;;;;;;;;5087601;28;20021;-85
2023/08/31 08:57:40;;;;;;;5.38;2.47;;;;;;;;;;5079299;28;20166;-85
2023/08/31 09:00:06;;;;;;;8.32;2.42;;;;;;;;;;5088116;28;20032;-84
2023/08/31 09:02:34;;;;;;;9.18;2.10;;;;;;;;;;5086141;28;20536;-85
2023/08/31 09:04:59;;;;;;;9.82;2.80;;;;;;;;;;5087095;28;20107;-85
2023/08/31 09:07:31;;;;;;;10.77;3.22;;;;;;;;;;5085927;28;20495;-85
2023/08/31 09:09:59;;;;;;;10.93;2.72;;;;;;;;;;5086811;28;20107;-83
2023/08/31 09:12:24;;;;;;;11.73;2.80;;;;;;;;;;5087247;28;20493;-83
2023/08/31 09:15:04;;;;;;;16.25;3.10;;;;;;;;;;5088285;28;20016;-82
2023/08/31 09:17:47;;;;;;;6.75;2.58;;;;;;;;;;5086028;28;20024;-82
2023/08/31 09:20:14;;;;;;;4.18;2.22;;;;;;;;;;5087165;28;20486;-83
2023/08/31 09:22:50;;;;;;;9.43;2.60;;;;;;;;;;5073322;28;20020;-84
2023/08/31 09:25:16;;;;;;;10.35;2.67;;;;;;;;;;5073041;28;20039;-83
2023/08/31 09:27:44;;;;;;;7.75;2.58;;;;;;;;;;5072076;28;20024;-81
2023/08/31 09:30:13;;;;;;;10.35;2.45;;;;;;;;;;5072271;28;20062;-85
2023/08/31 09:32:38;;;;;;;8.48;2.63;;;;;;;;;;5073295;28;20111;-84
2023/08/31 09:35:13;;;;;;;9.50;2.83;;;;;;;;;;5073854;28;20055;-84
2023/08/31 09:37:38;;;;;;;9.35;3.03;;;;;;;;;;5064464;28;20461;-84
2023/08/31 09:40:04;;;;;;;8.30;2.33;;;;;;;;;;5073450;28;20479;-84
2023/08/31 09:42:36;;;;;;;9.90;2.30;;;;;;;;;;5069514;28;20020;-83
2023/08/31 09:45:04;;;;;;;8.65;2.53;;;;;;;;;;5063113;28;20101;-84
2023/08/31 09:47:30;;;;;;;6.95;2.42;;;;;;;;;;5059803;28;20059;-83
2023/08/31 09:49:56;;;;;;;9.55;2.20;;;;;;;;;;5073625;28;20416;-83
2023/08/31 09:52:22;;;;;;;7.95;2.65;;;;;;;;;;5073516;28;20131;-83
2023/08/31 09:54:51;;;;;;;9.00;3.67;;;;;;;;;;5075140;28;20052;-83
2023/08/31 09:57:17;;;;;;;9.10;2.30;;;;;;;;;;5074322;28;20016;-83
2023/08/31 09:59:50;;;;;;;7.68;2.92;;;;;;;;;;5071645;28;20383;-83
2023/08/31 10:02:16;;;;;;;6.65;2.80;;;;;;;;;;5061326;28;20119;-83
2023/08/31 10:04:42;;;;;;;11.20;2.80;;;;;;;;;;5072731;28;20022;-83
2023/08/31 10:07:11;;;;;;;8.48;2.45;;;;;;;;;;5061421;28;20032;-83
2023/08/31 10:09:37;;;;;;;21.17;2.80;;;;;;;;;;5092332;28;20032;-83
2023/08/31 10:12:06;;;;;;;10.07;2.58;;;;;;;;;;5071042;28;20529;-83
2023/08/31 10:14:34;;;;;;;8.65;2.45;;;;;;;;;;5068635;28;20058;-82
2023/08/31 10:16:59;;;;;;;6.10;2.50;;;;;;;;;;5063279;28;20078;-83
2023/08/31 10:19:25;;;;;;;11.55;3.30;;;;;;;;;;5071994;28;20423;-83
2023/08/31 10:21:50;;;;;;;6.43;2.95;;;;;;;;;;5072251;28;20100;-83
2023/08/31 10:24:15;;;;;;;6.55;2.40;;;;;;;;;;5065109;28;20178;-83
2023/08/31 10:26:41;;;;;;;9.82;2.70;;;;;;;;;;5072401;28;20025;-83
2023/08/31 10:29:15;;;;;;;4.75;2.47;;;;;;;;;;5073629;28;20487;-83
2023/08/31 10:31:41;;;;;;;8.98;2.10;;;;;;;;;;5065567;28;20021;-83
2023/08/31 10:34:09;;;;;;;7.53;2.30;;;;;;;;;;5063050;28;20031;-83
2023/08/31 10:36:39;;;;;;;8.70;3.28;;;;;;;;;;5073042;28;20009;-83
2023/08/31 10:39:06;;;;;;;4.90;2.22;;;;;;;;;;5071766;28;20016;-84
2023/08/31 10:41:35;;;;;;;11.02;2.83;;;;;;;;;;5070880;28;20368;-84
2023/08/31 10:44:01;;;;;;;6.40;2.22;;;;;;;;;;5057616;28;20009;-83
2023/08/31 10:46:35;;;;;;;10.98;2.65;;;;;;;;;;5072960;28;20028;-83
2023/08/31 10:49:00;;;;;;;6.93;2.60;;;;;;;;;;5068158;28;20473;-83
2023/08/31 10:51:26;;;;;;;6.88;2.20;;;;;;;;;;5061545;28;20170;-84
2023/08/31 10:53:52;;;;;;;5.68;1.88;;;;;;;;;;5068382;28;20115;-83
2023/08/31 10:56:29;;;;;;;7.65;2.50;;;;;;;;;;5072170;28;20056;-84
2023/08/31 10:58:58;;;;;;;7.50;2.03;;;;;;;;;;5071992;28;20345;-84
2023/08/31 11:01:46;;;;;;;10.88;2.05;;;;;;;;;;5069053;28;20436;-84
2023/08/31 11:04:12;;;;;;;6.38;2.10;;;;;;;;;;5050355;28;20122;-85
2023/08/31 11:06:38;;;;;;;5.47;1.95;;;;;;;;;;5072026;28;20068;-84
2023/08/31 11:09:04;;;;;;;7.50;1.50;;;;;;;;;;5072105;28;20486;-84
2023/08/31 11:11:37;;;;;;;4.47;1.58;;;;;;;;;;5068273;28;20354;-84
2023/08/31 11:14:02;;;;;;;6.82;1.42;;;;;;;;;;5073265;28;20016;-83
2023/08/31 11:16:29;;;;;;;4.25;1.50;;;;;;;;;;5096891;27;20124;-84
2023/08/31 11:18:55;;;;;;;9.45;1.70;;;;;;;;;;5072043;28;20020;-84
2023/08/31 11:21:23;;;;;;;4.93;1.52;;;;;;;;;;5066289;28;20468;-83
2023/08/31 11:23:48;;;;;;;6.63;1.40;;;;;;;;;;5071640;28;20027;-84
2023/08/31 11:26:14;;;;;;;7.38;1.55;;;;;;;;;;5071787;28;20012;-85
2023/08/31 11:28:39;;;;;;;9.55;1.80;;;;;;;;;;5071773;28;20498;-83
2023/08/31 11:31:04;;;;;;;4.18;1.20;;;;;;;;;;5072067;28;20024;-84
2023/08/31 11:33:33;;;;;;;5.18;1.27;;;;;;;;;;5071695;28;20029;-86
2023/08/31 11:35:58;;;;;;;2.00;0.88;;;;;;;;;;5071425;28;20093;-85
2023/08/31 11:38:26;;;;;;;5.35;1.33;;;;;;;;;;5071300;28;20040;-85
2023/08/31 11:40:55;;;;;;;4.13;1.70;;;;;;;;;;5069843;28;20016;-85
2023/08/31 11:43:21;;;;;;;3.97;1.25;;;;;;;;;;5058205;28;20067;-84
2023/08/31 11:45:46;;;;;;;4.78;1.67;;;;;;;;;;5051508;28;20028;-84
2023/08/31 11:48:12;;;;;;;3.95;1.25;;;;;;;;;;5092053;28;20523;-85
2023/08/31 11:50:39;;;;;;;5.53;1.33;;;;;;;;;;5065707;28;20027;-84
2023/08/31 11:53:04;;;;;;;6.70;1.40;;;;;;;;;;5060942;28;20017;-84
2023/08/31 11:55:33;;;;;;;3.15;1.05;;;;;;;;;;5065797;28;20071;-85
2023/08/31 11:57:58;;;;;;;6.60;1.50;;;;;;;;;;5070429;28;20155;-85
2023/08/31 12:00:24;;;;;;;2.22;0.98;;;;;;;;;;5068856;28;20103;-85
2023/08/31 12:02:59;;;;;;;4.25;1.75;;;;;;;;;;5063581;28;20021;-85
2023/08/31 12:05:25;;;;;;;5.22;1.70;;;;;;;;;;5062595;28;20089;-85
2023/08/31 12:07:52;;;;;;;1.85;1.23;;;;;;;;;;5059585;28;20024;-85
2023/08/31 12:10:18;;;;;;;3.25;1.30;;;;;;;;;;5070030;28;20024;-85
2023/08/31 12:12:43;;;;;;;4.38;1.52;;;;;;;;;;5067303;28;20104;-85
2023/08/31 12:15:10;;;;;;;4.25;1.40;;;;;;;;;;5051990;28;20017;-85
2023/08/31 12:17:39;;;;;;;5.85;1.30;;;;;;;;;;5070971;28;20022;-85
2023/08/31 12:20:05;;;;;;;5.45;1.60;;;;;;;;;;5062218;28;20017;-84
2023/08/31 12:22:31;;;;;;;4.88;1.63;;;;;;;;;;5065736;28;20107;-85
2023/08/31 12:24:56;;;;;;;3.60;1.50;;;;;;;;;;5071380;28;20445;-85
2023/08/31 12:27:21;;;;;;;2.33;1.15;;;;;;;;;;5059400;28;20033;-85
2023/08/31 12:29:50;;;;;;;5.63;1.48;;;;;;;;;;5069423;28;20070;-85
2023/08/31 12:32:17;;;;;;;5.50;1.80;;;;;;;;;;5069379;28;20206;-85
2023/08/31 12:34:42;;;;;;;3.42;1.40;;;;;;;;;;5070974;28;20013;-85
2023/08/31 12:37:07;;;;;;;4.63;1.40;;;;;;;;;;5071101;28;20108;-85
2023/08/31 12:39:33;;;;;;;4.15;1.60;;;;;;;;;;5070760;28;20020;-85
2023/08/31 12:41:59;;;;;;;2.70;1.25;;;;;;;;;;5070663;28;20017;-86
2023/08/31 12:44:25;;;;;;;3.20;1.15;;;;;;;;;;5070464;28;20021;-86
2023/08/31 12:46:50;;;;;;;3.45;1.02;;;;;;;;;;5070719;28;20028;-86
2023/08/31 12:49:16;;;;;;;2.13;0.95;;;;;;;;;;5070555;28;20017;-86
2023/08/31 12:51:41;;;;;;;6.45;1.90;;;;;;;;;;5062054;28;20477;-86
2023/08/31 12:54:07;;;;;;;3.95;1.48;;;;;;;;;;5057676;28;20107;-85
2023/08/31 12:56:33;;;;;;;6.18;1.27;;;;;;;;;;5072141;28;20115;-86
2023/08/31 12:58:58;;;;;;;6.25;1.30;;;;;;;;;;5074094;28;20009;-85
2023/08/31 13:01:26;;;;;;;5.07;1.50;;;;;;;;;;5068367;28;20062;-85
2023/08/31 13:03:52;;;;;;;3.90;1.33;;;;;;;;;;5068924;28;20436;-85
2023/08/31 13:06:17;;;;;;;6.47;1.30;;;;;;;;;;5074140;28;20387;-85
2023/08/31 13:08:44;;;;;;;8.52;1.25;;;;;;;;;;5073935;28;20464;-85
2023/08/31 13:11:09;;;;;;;3.10;1.40;;;;;;;;;;5072206;28;20029;-86
2023/08/31 13:13:35;;;;;;;2.63;1.15;;;;;;;;;;5071990;28;20027;-85
2023/08/31 13:16:02;;;;;;;5.22;0.80;;;;;;;;;;5069303;28;20086;-86
2023/08/31 13:18:28;;;;;;;7.63;1.30;;;;;;;;;;5073726;28;20028;-86
2023/08/31 13:20:56;;;;;;;10.98;1.75;;;;;;;;;;5071466;28;20216;-85
2023/08/31 13:23:22;;;;;;;5.93;1.50;;;;;;;;;;5068395;28;20090;-86
2023/08/31 13:25:47;;;;;;;5.63;1.13;;;;;;;;;;5069338;28;20463;-85
2023/08/31 13:28:13;;;;;;;1.88;0.80;;;;;;;;;;5072694;28;20054;-86
2023/08/31 13:30:42;;;;;;;3.88;1.23;;;;;;;;;;5069126;28;20467;-85
2023/08/31 13:33:08;;;;;;;4.60;1.40;;;;;;;;;;5071602;28;20464;-86
2023/08/31 13:35:35;;;;;;;6.07;1.50;;;;;;;;;;5064201;28;20028;-86
2023/08/31 13:38:02;;;;;;;7.80;1.40;;;;;;;;;;5060149;28;20025;-85
2023/08/31 13:40:28;;;;;;;8.05;1.20;;;;;;;;;;5073972;28;20016;-85
2023/08/31 13:42:54;;;;;;;4.28;1.55;;;;;;;;;;5064199;28;20032;-85
2023/08/31 13:45:20;;;;;;;2.20;1.05;;;;;;;;;;5068081;28;20349;-84
2023/08/31 13:47:48;;;;;;;4.57;1.20;;;;;;;;;;5068674;28;20131;-87
2023/08/31 13:50:14;;;;;;;2.90;1.13;;;;;;;;;;5057321;28;20056;-87
2023/08/31 13:52:43;;;;;;;4.47;1.38;;;;;;;;;;5074300;28;20028;-86
2023/08/31 13:55:08;;;;;;;5.07;1.08;;;;;;;;;;5070669;28;20348;-86
2023/08/31 13:57:33;;;;;;;5.30;1.25;;;;;;;;;;5066296;28;20013;-86
2023/08/31 13:59:59;;;;;;;2.85;1.15;;;;;;;;;;5066731;28;20020;-86
2023/08/31 14:02:25;;;;;;;7.90;1.40;;;;;;;;;;5057563;28;20478;-86
2023/08/31 14:04:58;;;;;;;5.25;1.45;;;;;;;;;;5058214;28;20498;-86
2023/08/31 14:07:23;;;;;;;3.40;1.20;;;;;;;;;;5065293;28;20017;-87
2023/08/31 14:09:49;;;;;;;4.20;1.30;;;;;;;;;;5072254;28;20107;-84
2023/08/31 14:12:14;;;;;;;6.50;1.55;;;;;;;;;;5064273;28;20447;-84
2023/08/31 14:14:41;;;;;;;4.15;1.17;;;;;;;;;;5067377;28;20423;-83
2023/08/31 14:17:06;;;;;;;4.28;1.02;;;;;;;;;;5055984;28;20496;-81
2023/08/31 14:19:33;;;;;;;2.92;1.10;;;;;;;;;;5068850;28;20027;-84
2023/08/31 14:21:58;;;;;;;3.38;1.05;;;;;;;;;;5070114;28;20116;-84
2023/08/31 14:24:23;;;;;;;3.22;1.40;;;;;;;;;;5062703;28;20103;-83
2023/08/31 14:26:49;;;;;;;5.18;1.35;;;;;;;;;;5067152;28;20052;-83
2023/08/31 14:29:22;;;;;;;6.82;1.38;;;;;;;;;;5060428;28;20035;-82
2023/08/31 14:31:47;;;;;;;9.13;1.23;;;;;;;;;;5062435;28;20021;-83
2023/08/31 14:34:12;;;;;;;5.07;1.02;;;;;;;;;;5066501;28;20030;-83
2023/08/31 14:36:38;;;;;;;4.38;1.05;;;;;;;;;;5061987;28;20380;-82